createdAt,value
2022-12-11T00:01:49.323Z,98996.34
2022-12-11T00:04:18.588Z,98998.66
2022-12-11T00:06:51.214Z,99008.91
2022-12-11T00:09:21.553Z,99010.38
2022-12-11T00:11:50.563Z,99012.03
2022-12-11T00:14:22.676Z,99018.47
2022-12-11T00:16:51.838Z,99025.16
2022-12-11T00:19:21.117Z,99020.72
2022-12-11T00:21:49.997Z,99019.09
2022-12-11T00:24:19.663Z,99016.72
2022-12-11T00:26:49.548Z,99005.00
2022-12-11T00:29:18.627Z,99019.94
2022-12-11T00:31:47.733Z,99023.16
2022-12-11T00:34:16.827Z,99018.44
2022-12-11T00:36:48.757Z,99029.47
2022-12-11T00:39:17.844Z,99027.09
2022-12-11T00:41:46.702Z,99035.72
2022-12-11T00:44:15.780Z,99031.81
2022-12-11T00:46:45.139Z,99031.06
2022-12-11T00:49:14.987Z,99029.41
2022-12-11T00:51:53.676Z,99023.91
2022-12-11T00:54:30.445Z,99029.06
2022-12-11T00:57:11.224Z,99027.06
2022-12-11T00:59:52.585Z,99031.00
2022-12-11T01:02:28.720Z,99039.72
2022-12-11T01:08:02.992Z,99072.72
2022-12-11T01:10:35.734Z,99082.91
2022-12-11T01:13:08.437Z,99080.56
2022-12-11T01:15:55.874Z,99088.88
2022-12-11T01:18:34.729Z,99096.34
2022-12-11T01:21:28.038Z,99097.88
2022-12-11T01:24:09.775Z,99103.38
2022-12-11T01:26:44.057Z,99103.81
2022-12-11T01:29:20.446Z,99094.72
2022-12-11T01:32:01.600Z,99115.97
2022-12-11T01:34:35.411Z,99118.34
2022-12-11T01:37:07.892Z,99116.78
2022-12-11T01:39:42.467Z,99119.91
2022-12-11T01:42:20.650Z,99117.16
2022-12-11T01:44:58.825Z,99124.63
2022-12-11T01:47:31.726Z,99130.13
2022-12-11T01:50:08.562Z,99113.59
2022-12-11T01:55:34.122Z,99117.56
2022-12-11T01:58:10.336Z,99131.69
2022-12-11T02:00:43.431Z,99129.75
2022-12-11T02:03:22.270Z,99130.16
2022-12-11T02:05:51.907Z,99134.84
2022-12-11T02:08:29.572Z,99139.56
2022-12-11T02:11:32.014Z,99142.72
2022-12-11T02:14:33.858Z,99143.88
2022-12-11T02:17:28.397Z,99141.53
2022-12-11T02:20:17.685Z,99146.66
2022-12-11T02:23:14.945Z,99147.81
2022-12-11T02:26:26.710Z,99147.44
2022-12-11T02:32:05.818Z,99144.28
2022-12-11T02:35:10.904Z,99150.56
2022-12-11T02:37:44.812Z,99156.84
2022-12-11T02:40:43.816Z,99160.00
2022-12-11T02:43:18.476Z,99163.94
2022-12-11T02:46:33.158Z,99160.78
2022-12-11T02:49:10.378Z,99164.34
2022-12-11T02:51:48.156Z,99166.34
2022-12-11T02:54:43.050Z,99168.69
2022-12-11T02:58:01.740Z,99174.16
2022-12-11T03:00:48.743Z,99165.50
2022-12-11T03:03:30.150Z,99177.69
2022-12-11T03:06:00.587Z,99170.25
2022-12-11T03:08:40.592Z,99178.47
2022-12-11T03:11:17.912Z,99165.13
2022-12-11T03:13:57.139Z,99173.78
2022-12-11T03:16:59.059Z,99172.59
2022-12-11T03:19:41.640Z,99170.22
2022-12-11T03:22:24.349Z,99182.78
2022-12-11T03:25:14.675Z,99187.53
2022-12-11T03:28:20.648Z,99191.44
2022-12-11T03:30:54.532Z,99197.38
2022-12-11T03:33:28.683Z,99214.66
2022-12-11T03:36:15.886Z,99213.47
2022-12-11T03:38:55.749Z,99209.94
2022-12-11T03:41:27.770Z,99208.00
2022-12-11T03:43:59.585Z,99213.84
2022-12-11T03:46:35.277Z,99222.53
2022-12-11T03:49:10.215Z,99234.69
2022-12-11T03:51:40.073Z,99242.56
2022-12-11T03:54:09.695Z,99235.09
2022-12-11T03:56:40.828Z,99238.66
2022-12-11T03:59:09.755Z,99245.31
2022-12-11T04:01:38.644Z,99253.97
2022-12-11T04:04:07.669Z,99258.31
2022-12-11T04:06:37.007Z,99267.69
2022-12-11T04:09:05.794Z,99266.53
2022-12-11T04:11:37.482Z,99264.56
2022-12-11T04:14:28.230Z,99263.00
2022-12-11T04:16:58.046Z,99266.16
2022-12-11T04:19:47.037Z,99279.16
2022-12-11T04:22:59.175Z,99293.63
2022-12-11T04:25:30.754Z,99295.22
2022-12-11T04:27:59.681Z,99293.63
2022-12-11T04:30:33.989Z,99305.41
2022-12-11T04:33:03.563Z,99312.91
2022-12-11T04:35:32.631Z,99318.38
2022-12-11T04:38:01.993Z,99317.25
2022-12-11T04:40:30.747Z,99327.50
2022-12-11T04:42:59.779Z,99334.56
2022-12-11T04:45:28.793Z,99338.53
2022-12-11T04:47:57.438Z,99346.38
2022-12-11T04:50:26.855Z,99351.84
2022-12-11T04:52:59.665Z,99356.56
2022-12-11T04:55:28.392Z,99350.69
2022-12-11T04:57:57.061Z,99357.00
2022-12-11T05:00:25.936Z,99358.13
2022-12-11T05:02:56.504Z,99362.06
2022-12-11T05:05:25.295Z,99363.66
2022-12-11T05:07:54.132Z,99367.19
2022-12-11T05:10:22.791Z,99376.97
2022-12-11T05:12:51.492Z,99379.25
2022-12-11T05:15:20.143Z,99377.75
2022-12-11T05:17:48.823Z,99387.94
2022-12-11T05:20:18.294Z,99396.56
2022-12-11T05:22:47.262Z,99391.16
2022-12-11T05:25:15.895Z,99387.50
2022-12-11T05:27:44.594Z,99394.22
2022-12-11T05:30:13.342Z,99398.81
2022-12-11T05:32:42.011Z,99396.59
2022-12-11T05:35:11.123Z,99384.06
2022-12-11T05:37:40.087Z,99393.13
2022-12-11T05:40:09.297Z,99405.31
2022-12-11T05:42:38.006Z,99403.78
2022-12-11T05:45:11.501Z,99411.59
2022-12-11T05:47:40.545Z,99407.69
2022-12-11T05:50:09.972Z,99417.13
2022-12-11T05:52:38.669Z,99425.78
2022-12-11T05:55:07.852Z,99408.91
2022-12-11T05:57:36.651Z,99422.63
2022-12-11T06:00:06.937Z,99427.22
2022-12-11T06:02:38.934Z,99428.84
2022-12-11T06:05:08.136Z,99443.03
2022-12-11T06:07:36.827Z,99443.84
2022-12-11T06:10:05.825Z,99433.22
2022-12-11T06:12:34.469Z,99435.97
2022-12-11T06:15:03.474Z,99447.78
2022-12-11T06:17:32.130Z,99447.81
2022-12-11T06:20:00.885Z,99452.13
2022-12-11T06:22:35.120Z,99452.88
2022-12-11T06:25:12.439Z,99462.66
2022-12-11T06:27:54.163Z,99458.72
2022-12-11T06:30:38.725Z,99467.78
2022-12-11T06:33:08.651Z,99467.03
2022-12-11T06:35:42.357Z,99476.53
2022-12-11T06:38:11.769Z,99476.09
2022-12-11T06:40:43.498Z,99473.72
2022-12-11T06:43:18.094Z,99479.97
2022-12-11T06:45:50.108Z,99476.03
2022-12-11T06:48:22.884Z,99483.16
2022-12-11T06:50:57.328Z,99489.50
2022-12-11T06:53:28.896Z,99488.66
2022-12-11T06:56:04.359Z,99500.72
2022-12-11T06:58:37.753Z,99499.28
2022-12-11T07:01:24.592Z,99507.81
2022-12-11T07:04:00.923Z,99513.69
2022-12-11T07:06:31.146Z,99507.91
2022-12-11T07:09:00.195Z,99515.00
2022-12-11T07:11:28.962Z,99526.13
2022-12-11T07:14:01.366Z,99520.31
2022-12-11T07:16:32.953Z,99526.25
2022-12-11T07:19:02.086Z,99521.88
2022-12-11T07:21:34.490Z,99525.44
2022-12-11T07:24:03.762Z,99528.50
2022-12-11T07:26:33.242Z,99519.91
2022-12-11T07:29:07.755Z,99515.19
2022-12-11T07:31:40.190Z,99519.91
2022-12-11T07:34:09.378Z,99525.34
2022-12-11T07:36:41.353Z,99520.69
2022-12-11T07:39:29.014Z,99516.78
2022-12-11T07:42:00.457Z,99522.22
2022-12-11T07:44:29.370Z,99514.44
2022-12-11T07:46:58.143Z,99519.22
2022-12-11T07:49:26.994Z,99504.97
2022-12-11T07:51:57.327Z,99516.75
2022-12-11T07:54:27.187Z,99516.69
2022-12-11T07:56:56.984Z,99516.00
2022-12-11T07:59:26.137Z,99524.25
2022-12-11T08:01:55.143Z,99524.78
2022-12-11T08:04:24.190Z,99534.16
2022-12-11T08:06:59.712Z,99529.34
2022-12-11T08:09:28.586Z,99537.06
2022-12-11T08:11:57.348Z,99534.00
2022-12-11T08:14:26.295Z,99533.34
2022-12-11T08:16:55.153Z,99538.78
2022-12-11T08:19:24.142Z,99544.28
2022-12-11T08:21:53.075Z,99546.50
2022-12-11T08:24:22.010Z,99545.47
2022-12-11T08:26:51.075Z,99559.22
2022-12-11T08:29:19.841Z,99549.00
2022-12-11T08:31:48.597Z,99548.28
2022-12-11T08:34:17.303Z,99549.25
2022-12-11T08:36:46.226Z,99554.41
2022-12-11T08:39:15.661Z,99546.63
2022-12-11T08:41:50.734Z,99551.19
2022-12-11T08:44:20.849Z,99559.06
2022-12-11T08:46:50.435Z,99563.56
2022-12-11T08:49:20.373Z,99565.84
2022-12-11T08:51:49.293Z,99559.25
2022-12-11T08:54:17.982Z,99566.03
2022-12-11T08:56:47.037Z,99563.69
2022-12-11T08:59:18.255Z,99560.69
2022-12-11T09:01:51.160Z,99568.56
2022-12-11T09:04:20.179Z,99562.31
2022-12-11T09:06:50.039Z,99570.91
2022-12-11T09:09:21.865Z,99578.66
2022-12-11T09:11:51.085Z,99578.00
2022-12-11T09:14:19.994Z,99583.41
2022-12-11T09:16:52.231Z,99594.31
2022-12-11T09:19:21.203Z,99586.53
2022-12-11T09:21:58.913Z,99586.56
2022-12-11T09:24:27.805Z,99587.28
2022-12-11T09:26:57.054Z,99594.31
2022-12-11T09:29:26.310Z,99596.56
2022-12-11T09:31:55.473Z,99592.78
2022-12-11T09:34:29.176Z,99603.91
2022-12-11T09:37:01.791Z,99609.00
2022-12-11T09:39:37.020Z,99615.50
2022-12-11T09:42:24.179Z,99605.53
2022-12-11T09:44:57.229Z,99603.66
2022-12-11T09:47:42.313Z,99604.91
2022-12-11T09:50:11.653Z,99605.34
2022-12-11T09:52:59.574Z,99611.31
2022-12-11T09:55:42.266Z,99602.34
2022-12-11T09:58:24.231Z,99618.47
2022-12-11T10:01:17.742Z,99611.28
2022-12-11T10:04:00.929Z,99614.13
2022-12-11T10:06:48.338Z,99624.34
2022-12-11T10:09:30.331Z,99623.41
2022-12-11T10:12:21.688Z,99623.88
2022-12-11T10:15:28.665Z,99629.84
2022-12-11T10:18:08.749Z,99633.78
2022-12-11T10:20:49.487Z,99634.44
2022-12-11T10:23:26.965Z,99640.75
2022-12-11T10:26:03.761Z,99637.59
2022-12-11T10:28:39.946Z,99644.69
2022-12-11T10:31:53.256Z,99659.53
2022-12-11T10:34:39.728Z,99660.47
2022-12-11T10:37:09.459Z,99666.00
2022-12-11T10:39:38.562Z,99671.91
2022-12-11T10:42:20.751Z,99675.84
2022-12-11T10:45:00.490Z,99671.91
2022-12-11T10:47:30.580Z,99672.31
2022-12-11T10:50:02.744Z,99657.44
2022-12-11T10:52:40.304Z,99665.22
2022-12-11T10:55:25.583Z,99657.94
2022-12-11T10:58:01.743Z,99661.16
2022-12-11T11:00:40.583Z,99666.34
2022-12-11T11:03:23.824Z,99658.09
2022-12-11T11:06:07.820Z,99662.78
2022-12-11T11:08:50.522Z,99660.34
2022-12-11T11:11:42.862Z,99662.78
2022-12-11T11:14:19.474Z,99666.69
2022-12-11T11:16:51.760Z,99683.94
2022-12-11T11:19:29.905Z,99681.53
2022-12-11T11:22:22.508Z,99696.09
2022-12-11T11:25:00.297Z,99681.19
2022-12-11T11:27:40.307Z,99687.22
2022-12-11T11:30:24.417Z,99684.94
2022-12-11T11:32:57.735Z,99686.78
2022-12-11T11:35:28.751Z,99693.03
2022-12-11T11:38:07.441Z,99686.69
2022-12-11T11:40:46.228Z,99689.19
2022-12-11T11:43:37.771Z,99695.06
2022-12-11T11:46:25.318Z,99702.91
2022-12-11T11:49:08.937Z,99699.50
2022-12-11T11:51:46.797Z,99701.63
2022-12-11T11:54:50.880Z,99701.69
2022-12-11T11:57:38.582Z,99703.28
2022-12-11T12:00:17.932Z,99707.25
2022-12-11T12:02:47.757Z,99715.84
2022-12-11T12:05:18.453Z,99717.41
2022-12-11T12:08:25.194Z,99724.41
2022-12-11T12:10:56.955Z,99727.50
2022-12-11T12:13:58.955Z,99727.16
2022-12-11T12:19:31.583Z,99717.84
2022-12-11T12:22:15.538Z,99721.53
2022-12-11T12:25:01.686Z,99718.41
2022-12-11T12:27:54.942Z,99719.28
2022-12-11T12:30:24.388Z,99716.59
2022-12-11T12:33:02.193Z,99721.72
2022-12-11T12:35:38.262Z,99722.94
2022-12-11T12:38:15.864Z,99725.28
2022-12-11T12:41:14.892Z,99723.69
2022-12-11T12:44:21.076Z,99723.56
2022-12-11T12:47:00.399Z,99729.19
2022-12-11T12:49:38.450Z,99731.59
2022-12-11T12:52:14.302Z,99731.56
2022-12-11T12:55:06.440Z,99744.31
2022-12-11T12:57:37.175Z,99742.06
2022-12-11T13:00:13.273Z,99741.75
2022-12-11T13:02:54.519Z,99729.91
2022-12-11T13:05:30.576Z,99737.88
2022-12-11T13:08:03.657Z,99737.50
2022-12-11T13:10:37.846Z,99736.72
2022-12-11T13:13:26.604Z,99742.66
2022-12-11T13:16:07.499Z,99742.16
2022-12-11T13:18:50.621Z,99741.06
2022-12-11T13:21:30.900Z,99737.88
2022-12-11T13:24:22.856Z,99743.34
2022-12-11T13:26:52.526Z,99755.13
2022-12-11T13:29:39.839Z,99756.75
2022-12-11T13:32:08.872Z,99764.66
2022-12-11T13:34:43.666Z,99763.84
2022-12-11T13:37:50.797Z,99758.34
2022-12-11T13:40:28.500Z,99763.25
2022-12-11T13:43:02.032Z,99759.84
2022-12-11T13:45:40.971Z,99770.13
2022-12-11T13:48:30.213Z,99765.34
2022-12-11T13:51:01.539Z,99765.13
2022-12-11T13:53:30.572Z,99774.53
2022-12-11T13:56:05.846Z,99780.28
2022-12-11T13:58:43.814Z,99772.50
2022-12-11T14:01:22.702Z,99784.81
2022-12-11T14:04:11.029Z,99796.59
2022-12-11T14:06:40.808Z,99796.09
2022-12-11T14:09:10.411Z,99800.84
2022-12-11T14:11:42.982Z,99798.97
2022-12-11T14:14:26.225Z,99796.44
2022-12-11T14:16:55.202Z,99812.22
2022-12-11T14:19:25.657Z,99798.03
2022-12-11T14:22:03.143Z,99816.38
2022-12-11T14:24:33.098Z,99816.50
2022-12-11T14:27:02.073Z,99821.59
2022-12-11T14:29:34.965Z,99816.09
2022-12-11T14:32:07.557Z,99818.50
2022-12-11T14:34:45.220Z,99826.84
2022-12-11T14:37:19.381Z,99827.91
2022-12-11T14:39:54.077Z,99827.59
2022-12-11T14:42:30.624Z,99839.31
2022-12-11T14:45:22.756Z,99839.00
2022-12-11T14:47:54.936Z,99847.69
2022-12-11T14:50:35.429Z,99854.75
2022-12-11T14:53:10.853Z,99856.44
2022-12-11T14:55:41.225Z,99852.53
2022-12-11T14:58:28.839Z,99860.56
2022-12-11T15:01:03.213Z,99863.97
2022-12-11T15:03:40.850Z,99861.31
2022-12-11T15:06:32.290Z,99862.72
2022-12-11T15:09:18.883Z,99866.06
2022-12-11T15:11:49.940Z,99865.44
2022-12-11T15:14:21.382Z,99865.31
2022-12-11T15:16:51.420Z,99859.81
2022-12-11T15:19:27.566Z,99867.75
2022-12-11T15:22:01.675Z,99866.28
2022-12-11T15:24:43.627Z,99870.88
2022-12-11T15:27:34.681Z,99870.72
2022-12-11T15:30:27.813Z,99867.41
2022-12-11T15:33:20.136Z,99876.53
2022-12-11T15:36:05.919Z,99880.13
2022-12-11T15:38:44.952Z,99887.00
2022-12-11T15:41:16.813Z,99894.44
2022-12-11T15:43:46.203Z,99890.88
2022-12-11T15:46:15.302Z,99897.22
2022-12-11T15:48:44.019Z,99893.88
2022-12-11T15:51:12.785Z,99905.72
2022-12-11T15:53:41.491Z,99902.97
2022-12-11T15:56:17.951Z,99906.56
2022-12-11T15:58:49.871Z,99904.97
2022-12-11T16:01:18.837Z,99922.22
2022-12-11T16:03:47.576Z,99931.19
2022-12-11T16:06:16.409Z,99936.38
2022-12-11T16:08:45.047Z,99937.75
2022-12-11T16:11:15.436Z,99937.13
2022-12-11T16:13:44.296Z,99939.66
2022-12-11T16:16:17.480Z,99952.75
2022-12-11T16:18:47.842Z,99954.06
2022-12-11T16:21:21.604Z,99958.19
2022-12-11T16:23:50.539Z,99963.31
2022-12-11T16:26:19.273Z,99970.81
2022-12-11T16:28:48.053Z,99963.84
2022-12-11T16:31:31.951Z,99970.09
2022-12-11T16:34:00.797Z,99969.19
2022-12-11T16:36:30.761Z,99971.78
2022-12-11T16:38:59.590Z,99980.09
2022-12-11T16:41:28.749Z,99984.88
2022-12-11T16:44:02.075Z,99987.84
2022-12-11T16:46:36.158Z,99987.44
2022-12-11T16:49:05.622Z,99989.25
2022-12-11T16:51:34.513Z,99985.19
2022-12-11T16:54:04.419Z,99991.75
2022-12-11T16:56:33.269Z,99998.16
2022-12-11T16:59:05.598Z,99995.75
2022-12-11T17:01:35.186Z,100008.22
2022-12-11T17:04:03.960Z,100008.44
2022-12-11T17:06:32.834Z,100011.56
2022-12-11T17:09:01.591Z,100010.50
2022-12-11T17:11:30.240Z,100013.34
2022-12-11T17:14:00.652Z,100006.41
2022-12-11T17:16:31.168Z,100006.81
2022-12-11T17:18:59.961Z,100006.94
2022-12-11T17:21:28.816Z,100012.44
2022-12-11T17:23:57.507Z,100019.81
2022-12-11T17:26:26.172Z,100021.72
2022-12-11T17:28:55.125Z,100018.56
2022-12-11T17:31:23.996Z,100021.44
2022-12-11T17:33:54.702Z,100023.41
2022-12-11T17:36:23.866Z,100019.63
2022-12-11T17:38:52.832Z,100020.59
2022-12-11T17:41:22.774Z,100017.97
2022-12-11T17:43:53.353Z,100023.34
2022-12-11T17:46:23.511Z,100021.56
2022-12-11T17:48:55.139Z,100028.81
2022-12-11T17:51:25.194Z,100018.56
2022-12-11T17:53:59.082Z,100024.75
2022-12-11T17:56:30.702Z,100023.69
2022-12-11T17:59:18.151Z,100025.84
2022-12-11T18:01:46.680Z,100033.59
2022-12-11T18:04:16.633Z,100032.16
2022-12-11T18:06:51.004Z,100035.19
2022-12-11T18:09:34.205Z,100047.59
2022-12-11T18:12:08.354Z,100064.09
2022-12-11T18:14:39.828Z,100067.03
2022-12-11T18:17:08.901Z,100062.41
2022-12-11T18:19:45.862Z,100065.38
2022-12-11T18:22:15.513Z,100066.25
2022-12-11T18:24:44.336Z,100067.53
2022-12-11T18:27:15.134Z,100063.31
2022-12-11T18:29:43.848Z,100062.94
2022-12-11T18:32:12.518Z,100067.88
2022-12-11T18:34:41.428Z,100059.53
2022-12-11T18:37:10.014Z,100059.44
2022-12-11T18:39:39.043Z,100060.25
2022-12-11T18:42:32.342Z,100063.63
2022-12-11T18:44:56.957Z,100067.59
2022-12-11T18:47:25.624Z,100065.69
2022-12-11T18:49:54.675Z,100058.56
2022-12-11T18:52:23.455Z,100062.38
2022-12-11T18:54:53.050Z,100055.91
2022-12-11T18:57:22.435Z,100060.31
2022-12-11T18:59:55.354Z,100061.59
2022-12-11T19:02:27.096Z,100068.25
2022-12-11T19:04:56.717Z,100080.56
2022-12-11T19:07:28.638Z,100082.59
2022-12-11T19:09:57.500Z,100088.53
2022-12-11T19:12:26.435Z,100082.88
2022-12-11T19:14:55.958Z,100100.91
2022-12-11T19:17:24.859Z,100097.81
2022-12-11T19:20:19.049Z,100099.41
2022-12-11T19:22:51.753Z,100111.25
2022-12-11T19:25:35.183Z,100105.03
2022-12-11T19:28:16.679Z,100099.47
2022-12-11T19:30:50.019Z,100095.72
2022-12-11T19:33:27.739Z,100091.13
2022-12-11T19:36:15.105Z,100084.19
2022-12-11T19:38:45.540Z,100087.63
2022-12-11T19:41:30.224Z,100087.41
2022-12-11T19:44:06.409Z,100093.84
2022-12-11T19:46:35.680Z,100084.38
2022-12-11T19:49:05.221Z,100087.69
2022-12-11T19:51:39.020Z,100079.09
2022-12-11T19:54:09.353Z,100083.28
2022-12-11T19:56:39.186Z,100082.59
2022-12-11T19:59:11.450Z,100093.63
2022-12-11T20:01:40.666Z,100100.72
2022-12-11T20:04:12.064Z,100107.06
2022-12-11T20:06:44.657Z,100109.44
2022-12-11T20:09:14.832Z,100105.63
2022-12-11T20:11:45.321Z,100108.84
2022-12-11T20:14:24.463Z,100107.06
2022-12-11T20:17:10.911Z,100116.66
2022-12-11T20:19:41.643Z,100114.34
2022-12-11T20:22:10.725Z,100116.34
2022-12-11T20:24:49.135Z,100114.41
2022-12-11T20:27:17.960Z,100120.41
2022-12-11T20:29:46.774Z,100127.78
2022-12-11T20:32:15.838Z,100131.69
2022-12-11T20:34:48.039Z,100130.75
2022-12-11T20:37:17.770Z,100141.06
2022-12-11T20:39:50.580Z,100131.81
2022-12-11T20:42:19.631Z,100129.38
2022-12-11T20:44:49.336Z,100137.56
2022-12-11T20:50:06.808Z,100136.16
2022-12-11T20:52:38.613Z,100141.81
2022-12-11T20:55:09.265Z,100143.53
2022-12-11T20:57:43.390Z,100134.72
2022-12-11T21:00:15.397Z,100138.00
2022-12-11T21:02:45.510Z,100127.34
2022-12-11T21:05:14.414Z,100141.56
2022-12-11T21:07:43.478Z,100147.13
2022-12-11T21:10:14.191Z,100149.34
2022-12-11T21:12:43.062Z,100149.19
2022-12-11T21:15:12.106Z,100154.09
2022-12-11T21:17:42.817Z,100148.34
2022-12-11T21:20:12.732Z,100148.84
2022-12-11T21:22:41.370Z,100148.69
2022-12-11T21:25:10.570Z,100148.63
2022-12-11T21:27:39.658Z,100149.94
2022-12-11T21:30:08.831Z,100143.34
2022-12-11T21:32:37.689Z,100140.22
2022-12-11T21:35:06.763Z,100144.84
2022-12-11T21:37:35.813Z,100154.69
2022-12-11T21:40:04.927Z,100159.81
2022-12-11T21:42:33.823Z,100166.81
2022-12-11T21:47:52.984Z,100170.84
2022-12-11T21:50:23.827Z,100175.59
2022-12-11T21:52:52.600Z,100182.78
2022-12-11T21:55:21.306Z,100181.00
2022-12-11T21:57:51.496Z,100191.03
2022-12-11T22:00:20.413Z,100189.47
2022-12-11T22:02:49.570Z,100187.13
2022-12-11T22:05:18.306Z,100188.63
2022-12-11T22:07:47.053Z,100192.69
2022-12-11T22:10:17.139Z,100191.81
2022-12-11T22:12:46.379Z,100199.00
2022-12-11T22:15:15.287Z,100205.31
2022-12-11T22:17:44.351Z,100203.75
2022-12-11T22:20:13.129Z,100199.66
2022-12-11T22:22:42.405Z,100197.41
2022-12-11T22:25:11.719Z,100204.50
2022-12-11T22:27:40.890Z,100196.94
2022-12-11T22:30:23.733Z,100192.56
2022-12-11T22:32:56.196Z,100210.72
2022-12-11T22:35:28.633Z,100208.34
2022-12-11T22:38:38.652Z,100211.41
2022-12-11T22:41:32.020Z,100221.09
2022-12-11T22:44:01.492Z,100223.97
2022-12-11T22:46:31.662Z,100223.09
2022-12-11T22:49:00.692Z,100214.53
2022-12-11T22:54:26.061Z,100224.91
2022-12-11T22:56:54.929Z,100232.03
2022-12-11T22:59:24.390Z,100228.09
2022-12-11T23:01:53.180Z,100230.19
2022-12-11T23:04:21.865Z,100234.88
2022-12-11T23:06:50.543Z,100237.53
2022-12-11T23:09:19.563Z,100238.72
2022-12-11T23:11:48.211Z,100232.22
2022-12-11T23:14:20.971Z,100238.06
2022-12-11T23:16:49.871Z,100239.44
2022-12-11T23:19:25.132Z,100242.97
2022-12-11T23:21:54.897Z,100242.78
2022-12-11T23:24:23.600Z,100239.56
2022-12-11T23:26:52.471Z,100239.88
2022-12-11T23:29:21.172Z,100237.34
2022-12-11T23:31:49.948Z,100241.75
2022-12-11T23:34:18.625Z,100255.81
2022-12-11T23:36:47.524Z,100261.41
2022-12-11T23:39:16.236Z,100258.22
2022-12-11T23:41:45.633Z,100264.16
2022-12-11T23:44:14.413Z,100262.56
2022-12-11T23:46:45.555Z,100267.22
2022-12-11T23:49:14.293Z,100273.59
2022-12-11T23:51:43.681Z,100266.91
2022-12-11T23:54:12.570Z,100273.47
2022-12-11T23:56:41.246Z,100280.47
2022-12-11T23:59:13.900Z,100280.47
